Time;durP1;ratioP1;P1;durP2;ratioP2;P2;SDS_P1;SDS_P2;PMS_P1;PMS_P2;Temp;Humidity;BMP_temperature;BMP_pressure;BME280_temperature;BME280_humidity;BME280_pressure;Samples;Min_cycle;Max_cycle;Signal;HPM_P1;HPM_P2
2022/06/18 00:00:48;;;;;;;5.93;5.53;;;21.10;99.90;;;;;;5053845;28;20198;-65
2022/06/18 00:03:14;;;;;;;5.85;5.28;;;21.10;99.90;;;;;;5053527;28;20206;-65
2022/06/18 00:05:42;;;;;;;4.85;4.45;;;21.10;99.90;;;;;;5052047;28;20237;-65
2022/06/18 00:08:14;;;;;;;7.28;6.57;;;21.20;99.90;;;;;;5053637;28;20556;-66
2022/06/18 00:10:40;;;;;;;7.32;6.93;;;21.20;99.90;;;;;;5054003;28;20654;-68
2022/06/18 00:13:39;;;;;;;6.32;5.85;;;21.20;99.90;;;;;;5053352;28;20224;-66
2022/06/18 00:16:06;;;;;;;5.75;4.65;;;21.30;99.90;;;;;;5053131;28;20218;-66
2022/06/18 00:18:32;;;;;;;6.10;5.70;;;21.20;99.90;;;;;;5052667;28;20190;-66
2022/06/18 00:21:00;;;;;;;6.07;5.57;;;21.20;99.90;;;;;;5053719;28;20210;-66
2022/06/18 00:23:26;;;;;;;4.80;4.40;;;21.10;99.90;;;;;;5052818;28;20206;-66
2022/06/18 00:25:52;;;;;;;5.00;4.68;;;21.10;99.90;;;;;;5052065;28;20190;-65
2022/06/18 00:28:25;;;;;;;5.53;4.95;;;21.00;99.90;;;;;;5053225;28;20193;-66
2022/06/18 00:30:52;;;;;;;5.38;5.07;;;21.00;99.90;;;;;;5053541;28;20372;-66
2022/06/18 00:33:19;;;;;;;6.90;4.70;;;20.90;99.90;;;;;;5052767;28;20206;-64
2022/06/18 00:35:45;;;;;;;5.03;4.57;;;20.90;99.90;;;;;;5052870;28;20285;-67
2022/06/18 00:38:18;;;;;;;5.05;4.75;;;20.80;99.90;;;;;;5053125;28;20593;-65
2022/06/18 00:40:45;;;;;;;5.72;5.13;;;20.70;99.90;;;;;;5053114;28;20224;-65
2022/06/18 00:43:16;;;;;;;5.70;5.20;;;20.70;99.90;;;;;;5052817;28;20788;-66
2022/06/18 00:45:41;;;;;;;5.18;4.78;;;20.70;99.90;;;;;;5052686;28;20206;-65
2022/06/18 00:48:25;;;;;;;6.03;5.43;;;20.70;99.90;;;;;;5053025;28;20221;-65
2022/06/18 00:51:13;;;;;;;5.63;4.88;;;20.60;99.90;;;;;;5052907;28;20209;-66
2022/06/18 00:53:46;;;;;;;5.13;4.82;;;20.60;99.90;;;;;;5051938;28;20748;-66
2022/06/18 00:56:11;;;;;;;5.13;4.22;;;20.60;99.90;;;;;;5052660;28;20263;-65
2022/06/18 00:58:52;;;;;;;4.57;4.28;;;20.60;99.90;;;;;;5052703;28;20167;-66
2022/06/18 01:01:22;;;;;;;4.32;4.13;;;20.60;99.90;;;;;;5052490;28;20184;-65
2022/06/18 01:03:50;;;;;;;4.88;4.57;;;20.60;99.90;;;;;;5052316;28;20187;-66
2022/06/18 01:06:30;;;;;;;4.60;4.30;;;20.50;99.90;;;;;;5052538;28;20354;-66
2022/06/18 01:09:08;;;;;;;4.68;4.28;;;20.50;99.90;;;;;;5052692;28;20167;-66
2022/06/18 01:11:37;;;;;;;4.45;4.15;;;20.50;99.90;;;;;;5052225;28;20178;-66
2022/06/18 01:14:05;;;;;;;5.00;4.70;;;20.50;99.90;;;;;;5052150;28;20678;-67
2022/06/18 01:16:32;;;;;;;5.25;4.95;;;20.50;99.90;;;;;;5052259;28;20202;-66
2022/06/18 01:18:59;;;;;;;4.80;4.25;;;20.50;99.90;;;;;;5052313;28;20178;-66
2022/06/18 01:21:48;;;;;;;5.10;4.80;;;20.40;99.90;;;;;;5052257;28;20174;-67
2022/06/18 01:24:22;;;;;;;5.93;4.25;;;20.40;99.90;;;;;;5032124;28;20477;-67
2022/06/18 01:26:53;;;;;;;4.25;3.95;;;20.40;99.90;;;;;;5033723;28;20792;-67
2022/06/18 01:29:19;;;;;;;4.68;4.28;;;20.30;99.90;;;;;;5052035;28;20174;-67
2022/06/18 01:31:47;;;;;;;4.75;4.45;;;20.20;99.90;;;;;;5051848;28;20186;-67
2022/06/18 01:34:14;;;;;;;5.03;4.63;;;20.20;99.90;;;;;;5050360;28;20207;-66
2022/06/18 01:36:41;;;;;;;4.72;4.30;;;20.20;99.90;;;;;;5051974;28;20268;-67
2022/06/18 01:39:11;;;;;;;4.80;4.47;;;20.20;99.90;;;;;;5052202;28;20238;-66
2022/06/18 01:41:50;;;;;;;4.32;3.97;;;20.20;99.90;;;;;;5051716;28;20179;-67
2022/06/18 01:44:31;;;;;;;5.32;4.85;;;20.20;99.90;;;;;;5051726;28;20190;-67
2022/06/18 01:47:06;;;;;;;4.78;4.38;;;20.20;99.90;;;;;;5051687;28;20183;-66
2022/06/18 01:49:40;;;;;;;4.13;3.92;;;20.20;99.90;;;;;;5051665;28;20256;-67
2022/06/18 01:52:08;;;;;;;4.63;4.35;;;20.20;99.90;;;;;;5051862;28;20265;-67
2022/06/18 01:54:47;;;;;;;4.82;4.53;;;20.20;99.90;;;;;;5051377;28;20197;-66
2022/06/18 01:57:21;;;;;;;5.38;4.43;;;20.20;99.90;;;;;;5050681;28;20206;-64
2022/06/18 01:59:53;;;;;;;4.82;4.50;;;20.20;99.90;;;;;;5051669;28;20173;-67
2022/06/18 02:02:19;;;;;;;5.35;4.93;;;20.20;99.90;;;;;;5051559;28;20171;-65
2022/06/18 02:04:45;;;;;;;5.20;4.90;;;20.30;99.90;;;;;;5049967;28;20270;-67
2022/06/18 02:07:12;;;;;;;5.20;4.47;;;20.30;99.90;;;;;;5051555;28;20260;-66
2022/06/18 02:09:46;;;;;;;4.85;4.55;;;20.30;99.90;;;;;;5051352;28;20289;-65
2022/06/18 02:12:16;;;;;;;4.75;4.40;;;20.20;99.90;;;;;;5051669;28;20736;-66
2022/06/18 02:14:46;;;;;;;5.05;4.70;;;20.20;99.90;;;;;;5051022;28;20205;-66
2022/06/18 02:17:17;;;;;;;5.03;4.63;;;20.20;99.90;;;;;;5051190;28;20207;-66
2022/06/18 02:19:52;;;;;;;4.68;4.40;;;20.20;99.90;;;;;;5051309;28;20617;-66
2022/06/18 02:22:20;;;;;;;5.15;4.65;;;20.20;99.90;;;;;;5051013;28;20577;-67
2022/06/18 02:24:46;;;;;;;4.65;4.35;;;20.10;99.90;;;;;;5050989;28;20700;-65
2022/06/18 02:27:15;;;;;;;5.00;4.65;;;20.10;99.90;;;;;;5051247;28;20210;-66
2022/06/18 02:29:42;;;;;;;4.70;4.40;;;20.10;99.90;;;;;;5051236;28;20187;-67
2022/06/18 02:32:32;;;;;;;5.45;5.05;;;20.10;99.90;;;;;;5051126;28;20178;-66
2022/06/18 02:34:58;;;;;;;4.63;4.30;;;20.10;99.90;;;;;;5023579;28;20241;-66
2022/06/18 02:37:27;;;;;;;4.72;4.40;;;20.10;99.90;;;;;;5031160;28;20203;-65
2022/06/18 02:39:55;;;;;;;5.07;4.70;;;20.10;99.90;;;;;;5036043;28;20221;-65
2022/06/18 02:42:21;;;;;;;5.40;5.10;;;20.10;99.90;;;;;;5055353;28;20710;-66
2022/06/18 02:44:47;;;;;;;5.07;4.68;;;20.10;99.90;;;;;;5054667;28;20285;-65
2022/06/18 02:47:15;;;;;;;5.13;4.82;;;20.10;99.90;;;;;;5055412;28;20254;-66
2022/06/18 02:49:48;;;;;;;5.90;5.00;;;20.10;99.90;;;;;;5054879;28;20232;-66
2022/06/18 02:52:14;;;;;;;5.13;4.60;;;20.10;99.90;;;;;;5055225;28;20182;-67
2022/06/18 02:54:40;;;;;;;5.25;4.75;;;20.10;99.90;;;;;;5054932;28;20203;-66
2022/06/18 02:57:15;;;;;;;5.00;4.60;;;20.10;99.90;;;;;;5055149;28;20213;-66
2022/06/18 02:59:41;;;;;;;5.68;4.40;;;20.10;99.90;;;;;;5053626;28;20450;-66
2022/06/18 03:02:06;;;;;;;4.88;4.57;;;20.10;99.90;;;;;;5035357;28;20658;-66
2022/06/18 03:04:32;;;;;;;6.22;4.10;;;20.10;99.90;;;;;;5034650;28;20239;-66
2022/06/18 03:06:57;;;;;;;5.95;5.55;;;20.00;99.90;;;;;;5053585;28;20179;-66
2022/06/18 03:09:23;;;;;;;5.07;4.78;;;20.00;99.90;;;;;;5054586;28;20260;-66
2022/06/18 03:12:07;;;;;;;6.07;5.53;;;20.00;99.90;;;;;;5054865;28;20182;-67
2022/06/18 03:14:33;;;;;;;5.65;5.32;;;20.00;99.90;;;;;;5054279;28;20205;-67
2022/06/18 03:16:59;;;;;;;6.13;4.60;;;20.00;99.90;;;;;;5054918;28;20214;-66
2022/06/18 03:19:39;;;;;;;4.85;4.55;;;20.00;99.90;;;;;;5054342;28;20197;-67
2022/06/18 03:22:12;;;;;;;4.57;4.30;;;20.00;99.90;;;;;;5055241;28;20191;-66
2022/06/18 03:24:40;;;;;;;5.30;4.82;;;19.90;99.90;;;;;;5053949;28;20218;-66
2022/06/18 03:27:06;;;;;;;6.37;5.97;;;19.90;99.90;;;;;;5054666;28;20189;-66
2022/06/18 03:29:32;;;;;;;5.47;5.03;;;19.90;99.90;;;;;;5054110;28;20183;-65
2022/06/18 03:31:57;;;;;;;5.25;4.70;;;20.00;99.90;;;;;;5054206;28;20186;-66
2022/06/18 03:34:23;;;;;;;5.45;5.05;;;20.00;99.90;;;;;;5053972;28;20225;-66
2022/06/18 03:36:48;;;;;;;5.07;4.68;;;19.90;99.90;;;;;;5054153;28;20198;-66
2022/06/18 03:39:14;;;;;;;4.72;4.45;;;19.90;99.90;;;;;;5054328;28;20270;-66
2022/06/18 03:41:40;;;;;;;5.30;4.80;;;19.90;99.90;;;;;;5053942;28;20190;-66
2022/06/18 03:44:05;;;;;;;5.82;5.20;;;19.90;99.90;;;;;;5053883;28;20191;-67
2022/06/18 03:46:31;;;;;;;5.57;5.18;;;20.00;99.90;;;;;;5054247;28;20183;-66
2022/06/18 03:49:01;;;;;;;5.20;4.80;;;20.00;99.90;;;;;;5054131;28;20558;-66
2022/06/18 03:51:27;;;;;;;5.35;4.95;;;20.00;99.90;;;;;;5053550;28;20170;-66
2022/06/18 03:53:55;;;;;;;6.28;5.25;;;20.10;99.90;;;;;;5053716;28;20195;-69
2022/06/18 03:56:23;;;;;;;5.65;5.25;;;20.10;99.90;;;;;;5053022;28;20245;-65
2022/06/18 03:58:50;;;;;;;4.80;4.40;;;20.20;99.90;;;;;;5054201;28;20179;-66
2022/06/18 04:01:22;;;;;;;6.28;4.90;;;20.20;99.90;;;;;;5053764;28;20702;-67
2022/06/18 04:03:48;;;;;;;6.50;5.13;;;20.20;99.90;;;;;;5053534;28;20198;-67
2022/06/18 04:06:16;;;;;;;5.30;4.82;;;20.20;99.90;;;;;;5053785;28;20178;-67
2022/06/18 04:08:43;;;;;;;5.82;5.07;;;20.20;99.90;;;;;;5054007;28;20626;-67
2022/06/18 04:11:11;;;;;;;6.32;5.85;;;20.20;99.90;;;;;;5053905;28;20175;-66
2022/06/18 04:13:36;;;;;;;6.27;5.87;;;20.40;99.90;;;;;;5053216;28;20230;-67
2022/06/18 04:16:02;;;;;;;5.78;5.25;;;20.50;99.90;;;;;;5053991;28;20280;-65
2022/06/18 04:18:28;;;;;;;4.65;4.25;;;20.60;99.90;;;;;;5053434;28;20179;-65
2022/06/18 04:20:54;;;;;;;5.97;4.82;;;20.70;99.90;;;;;;5053597;28;20175;-67
2022/06/18 04:23:20;;;;;;;5.05;4.68;;;20.90;99.90;;;;;;5053087;28;20190;-66
2022/06/18 04:25:46;;;;;;;4.63;4.32;;;21.10;99.90;;;;;;5053227;28;20540;-66
2022/06/18 04:28:14;;;;;;;5.45;5.10;;;21.20;99.90;;;;;;5053227;28;20179;-66
2022/06/18 04:30:40;;;;;;;5.60;5.22;;;21.40;99.90;;;;;;5053372;28;20163;-66
2022/06/18 04:33:06;;;;;;;5.32;4.90;;;21.40;99.90;;;;;;5053191;28;20171;-65
2022/06/18 04:35:33;;;;;;;5.63;4.90;;;21.60;99.90;;;;;;5053225;28;20206;-66
2022/06/18 04:37:58;;;;;;;5.72;5.25;;;21.60;99.90;;;;;;5053053;28;20210;-66
2022/06/18 04:40:31;;;;;;;6.47;5.20;;;21.80;99.90;;;;;;5053130;28;20209;-66
2022/06/18 04:43:01;;;;;;;5.68;5.28;;;21.90;99.90;;;;;;5052942;28;20201;-65
2022/06/18 04:45:28;;;;;;;6.22;5.60;;;22.10;99.90;;;;;;5052831;28;20285;-66
2022/06/18 04:47:54;;;;;;;6.20;5.63;;;22.20;99.90;;;;;;5052858;28;20195;-66
2022/06/18 04:50:23;;;;;;;6.45;4.65;;;22.30;99.90;;;;;;5053019;28;20171;-66
2022/06/18 04:52:48;;;;;;;5.00;4.45;;;22.40;99.90;;;;;;5052762;28;20546;-66
2022/06/18 04:55:14;;;;;;;6.95;6.25;;;22.50;99.90;;;;;;5051458;28;20202;-66
2022/06/18 04:57:40;;;;;;;5.43;4.88;;;22.60;99.90;;;;;;5052681;28;20719;-66
2022/06/18 05:00:07;;;;;;;8.07;5.80;;;22.70;99.90;;;;;;5052944;28;20565;-67
2022/06/18 05:02:34;;;;;;;5.15;4.75;;;22.80;99.90;;;;;;5051827;28;20654;-67
2022/06/18 05:05:00;;;;;;;5.80;4.30;;;23.00;99.90;;;;;;5052479;28;20599;-67
2022/06/18 05:07:25;;;;;;;6.30;5.75;;;23.20;99.90;;;;;;5052368;28;20190;-66
2022/06/18 05:09:51;;;;;;;5.28;4.80;;;23.50;99.90;;;;;;5052885;28;20179;-67
2022/06/18 05:12:17;;;;;;;4.95;4.07;;;23.80;99.90;;;;;;5052498;28;20175;-66
2022/06/18 05:14:43;;;;;;;4.63;4.28;;;24.00;99.90;;;;;;5052260;28;20746;-66
2022/06/18 05:17:19;;;;;;;4.18;3.78;;;24.30;99.90;;;;;;5052533;28;20202;-67
2022/06/18 05:19:44;;;;;;;4.85;4.45;;;24.50;99.90;;;;;;5052596;28;20240;-66
2022/06/18 05:22:10;;;;;;;4.63;4.22;;;24.60;99.90;;;;;;5052293;28;20658;-66
2022/06/18 05:24:36;;;;;;;7.78;4.55;;;24.70;99.90;;;;;;5052224;28;20194;-67
2022/06/18 05:27:03;;;;;;;3.85;3.65;;;24.70;99.90;;;;;;5052583;28;20179;-67
2022/06/18 05:29:28;;;;;;;4.43;4.10;;;24.80;99.90;;;;;;5052232;28;20504;-67
2022/06/18 05:31:54;;;;;;;4.47;3.88;;;24.90;99.90;;;;;;5052532;28;20182;-67
2022/06/18 05:34:20;;;;;;;9.15;4.00;;;25.00;99.90;;;;;;5052377;28;20210;-67
2022/06/18 05:36:47;;;;;;;5.40;4.15;;;25.10;99.90;;;;;;5052495;28;20687;-66
2022/06/18 05:39:16;;;;;;;5.82;4.90;;;25.10;99.90;;;;;;5052311;28;20179;-67
2022/06/18 05:41:42;;;;;;;4.80;4.40;;;25.20;99.90;;;;;;5052406;28;20174;-66
2022/06/18 05:44:07;;;;;;;4.32;3.92;;;25.40;99.90;;;;;;5051498;28;20210;-67
2022/06/18 05:46:33;;;;;;;5.32;4.38;;;25.40;99.90;;;;;;5050914;28;20183;-68
2022/06/18 05:48:59;;;;;;;4.55;4.07;;;25.60;99.90;;;;;;5051912;28;20279;-66
2022/06/18 05:51:25;;;;;;;7.70;4.53;;;25.70;99.90;;;;;;5051941;28;20638;-66
2022/06/18 05:53:50;;;;;;;4.68;4.28;;;25.80;99.90;;;;;;5051328;28;20248;-66
2022/06/18 05:56:16;;;;;;;6.63;4.63;;;26.10;99.90;;;;;;5051570;28;20224;-66
2022/06/18 05:58:42;;;;;;;5.65;4.18;;;26.40;99.90;;;;;;5051678;28;20175;-66
2022/06/18 06:01:08;;;;;;;4.78;3.92;;;26.80;99.90;;;;;;5052049;28;20573;-66
2022/06/18 06:03:33;;;;;;;5.57;4.38;;;27.20;99.90;;;;;;5051092;28;20225;-66
2022/06/18 06:06:00;;;;;;;5.13;4.63;;;27.30;99.90;;;;;;5051720;28;20653;-66
2022/06/18 06:08:26;;;;;;;6.72;4.07;;;27.60;99.90;;;;;;5051592;28;20669;-65
2022/06/18 06:13:36;;;;;;;3.80;3.60;;;28.30;99.90;;;;;;5051411;28;20208;-65
2022/06/18 06:16:01;;;;;;;5.00;3.85;;;28.50;99.90;;;;;;5050811;28;20203;-66
2022/06/18 06:18:29;;;;;;;3.88;3.55;;;28.50;99.90;;;;;;5050990;28;20712;-66
2022/06/18 06:20:56;;;;;;;4.40;3.72;;;28.60;99.90;;;;;;5051456;28;20250;-66
2022/06/18 06:23:23;;;;;;;5.03;3.80;;;28.70;99.90;;;;;;5050858;28;20175;-66
2022/06/18 06:25:49;;;;;;;4.43;4.13;;;29.00;99.90;;;;;;5051017;28;20182;-65
2022/06/18 06:28:17;;;;;;;4.05;3.75;;;29.00;99.90;;;;;;5051591;28;20170;-66
2022/06/18 06:30:43;;;;;;;4.40;4.03;;;29.00;99.90;;;;;;5051067;28;20206;-66
2022/06/18 06:33:09;;;;;;;5.03;4.18;;;29.10;99.90;;;;;;5051787;28;20182;-65
2022/06/18 06:35:35;;;;;;;6.72;3.95;;;29.30;99.90;;;;;;5050020;28;20218;-66
2022/06/18 06:38:02;;;;;;;6.90;3.78;;;29.50;99.90;;;;;;5049176;28;20199;-66
2022/06/18 06:40:29;;;;;;;4.22;3.55;;;29.70;99.90;;;;;;5051472;28;20177;-65
2022/06/18 06:42:58;;;;;;;5.15;3.33;;;29.80;99.90;;;;;;5051819;28;20163;-66
2022/06/18 06:45:27;;;;;;;3.40;3.20;;;30.00;99.90;;;;;;5051095;28;20233;-66
2022/06/18 06:47:54;;;;;;;5.93;3.42;;;29.90;99.90;;;;;;5051577;28;20391;-66
2022/06/18 06:50:21;;;;;;;3.85;3.50;;;30.10;99.90;;;;;;5051610;28;20246;-66
2022/06/18 06:52:50;;;;;;;4.03;3.50;;;30.50;99.90;;;;;;5051304;28;20178;-66
2022/06/18 06:58:11;;;;;;;4.07;3.78;;;31.20;99.90;;;;;;5031287;28;20178;-66
2022/06/18 07:00:41;;;;;;;4.10;3.80;;;31.40;99.90;;;;;;5031926;28;20168;-66
2022/06/18 07:03:08;;;;;;;4.45;3.50;;;31.50;99.90;;;;;;5031139;28;20164;-66
2022/06/18 07:05:34;;;;;;;3.80;3.50;;;31.60;99.90;;;;;;5046507;28;20229;-65
2022/06/18 07:07:59;;;;;;;3.33;3.13;;;31.70;99.90;;;;;;5050090;28;20719;-66
2022/06/18 07:10:25;;;;;;;4.05;3.55;;;31.80;99.90;;;;;;5050607;28;20175;-66
2022/06/18 07:12:50;;;;;;;4.60;4.05;;;32.00;99.90;;;;;;5049140;28;20190;-66
2022/06/18 07:15:17;;;;;;;3.80;3.50;;;31.90;99.90;;;;;;5050427;28;20670;-65
2022/06/18 07:17:42;;;;;;;4.88;3.60;;;31.90;99.90;;;;;;5049815;28;20183;-66
2022/06/18 07:20:14;;;;;;;4.35;3.95;;;32.00;99.90;;;;;;5050627;28;20177;-65
2022/06/18 07:22:40;;;;;;;3.53;3.22;;;32.30;99.90;;;;;;5050502;28;20197;-66
2022/06/18 07:25:07;;;;;;;4.35;3.25;;;32.70;99.90;;;;;;5050431;28;20178;-66
2022/06/18 07:27:34;;;;;;;4.22;2.97;;;33.00;99.90;;;;;;5053989;28;20171;-65
2022/06/18 07:29:59;;;;;;;3.90;3.50;;;33.30;99.90;;;;;;5054481;28;20179;-65
2022/06/18 07:32:25;;;;;;;3.85;3.47;;;33.50;99.90;;;;;;5054296;28;20181;-65
2022/06/18 07:34:53;;;;;;;3.13;2.75;;;33.70;99.90;;;;;;5053893;28;20207;-65
2022/06/18 07:37:20;;;;;;;4.05;3.35;;;33.90;99.90;;;;;;5054418;28;20612;-66
2022/06/18 07:39:45;;;;;;;7.43;3.20;;;34.20;99.90;;;;;;5054228;28;20167;-66
2022/06/18 07:42:13;;;;;;;5.25;3.38;;;34.40;99.90;;;;;;5053942;28;20293;-65
2022/06/18 07:44:38;;;;;;;3.78;3.20;;;34.60;99.90;;;;;;5052204;28;20200;-66
2022/06/18 07:47:04;;;;;;;3.25;2.95;;;34.90;99.90;;;;;;5054135;28;20175;-66
2022/06/18 07:49:30;;;;;;;3.25;3.05;;;35.20;99.90;;;;;;5053682;28;20201;-65
2022/06/18 07:51:56;;;;;;;3.05;2.75;;;35.50;99.90;;;;;;5053391;28;20181;-66
2022/06/18 07:54:22;;;;;;;3.10;2.80;;;35.60;99.90;;;;;;5053513;28;20195;-66
2022/06/18 07:56:49;;;;;;;2.92;2.67;;;35.90;99.90;;;;;;5053894;28;20202;-65
2022/06/18 07:59:16;;;;;;;3.65;3.05;;;36.20;99.90;;;;;;5053901;28;20595;-65
2022/06/18 08:01:42;;;;;;;5.10;3.60;;;36.70;99.90;;;;;;5053625;28;20254;-65
2022/06/18 08:04:08;;;;;;;3.63;3.25;;;36.50;99.90;;;;;;5053412;28;20718;-65
2022/06/18 08:06:33;;;;;;;3.63;2.88;;;36.50;99.90;;;;;;5053486;28;20256;-66
2022/06/18 08:08:59;;;;;;;3.22;2.70;;;36.50;99.90;;;;;;5053185;28;20650;-65
2022/06/18 08:11:28;;;;;;;3.90;3.42;;;36.50;99.90;;;;;;5053595;28;20560;-67
2022/06/18 08:13:55;;;;;;;3.00;2.75;;;36.50;99.90;;;;;;5053132;28;20195;-66
2022/06/18 08:16:20;;;;;;;5.97;3.53;;;36.80;99.90;;;;;;5051805;28;20222;-66
2022/06/18 08:18:46;;;;;;;7.82;3.53;;;36.80;99.90;;;;;;5053241;28;20262;-66
2022/06/18 08:21:15;;;;;;;7.10;3.25;;;35.90;99.90;;;;;;5052635;28;20262;-66
2022/06/18 08:23:41;;;;;;;5.05;3.38;;;35.70;99.90;;;;;;5049563;28;20202;-67
2022/06/18 08:26:08;;;;;;;4.07;3.03;;;36.10;99.90;;;;;;5052744;28;20721;-66
2022/06/18 08:28:36;;;;;;;3.28;2.95;;;36.20;99.90;;;;;;5035837;28;20674;-66
2022/06/18 08:31:04;;;;;;;3.00;2.78;;;36.50;99.90;;;;;;5034189;28;20186;-66
2022/06/18 08:33:30;;;;;;;4.63;3.30;;;36.60;99.90;;;;;;5052588;28;20289;-66
2022/06/18 08:36:02;;;;;;;6.00;3.20;;;36.80;99.90;;;;;;5052533;28;20301;-66
2022/06/18 08:38:28;;;;;;;3.28;2.67;;;37.20;99.90;;;;;;5040742;28;20590;-66
2022/06/18 08:41:09;;;;;;;3.90;3.45;;;37.70;99.90;;;;;;5031848;28;20175;-66
2022/06/18 08:43:57;;;;;;;5.50;3.38;;;37.70;99.90;;;;;;5032651;28;20183;-66
2022/06/18 08:46:29;;;;;;;6.43;3.33;;;37.60;99.90;;;;;;5032913;28;20164;-66
2022/06/18 08:49:32;;;;;;;3.65;2.85;;;38.00;99.90;;;;;;5033073;28;20178;-66
2022/06/18 08:52:27;;;;;;;5.32;3.13;;;38.50;99.90;;;;;;5032155;28;20172;-66
2022/06/18 08:55:15;;;;;;;6.40;2.92;;;38.60;99.80;;;;;;5032593;28;20214;-65
2022/06/18 08:57:41;;;;;;;5.40;3.03;;;39.00;99.90;;;;;;5032624;28;20184;-66
2022/06/18 09:00:15;;;;;;;5.05;3.00;;;39.50;99.90;;;;;;5032728;28;20191;-65
2022/06/18 09:02:58;;;;;;;10.00;3.45;;;39.80;97.10;;;;;;5036379;28;20189;-65
2022/06/18 09:05:59;;;;;;;3.92;3.00;;;39.60;97.50;;;;;;5052310;28;20206;-66
2022/06/18 09:08:41;;;;;;;3.47;2.75;;;39.40;95.60;;;;;;5050238;28;20179;-66
2022/06/18 09:11:23;;;;;;;4.80;3.47;;;39.10;96.00;;;;;;5052885;28;20662;-66
2022/06/18 09:13:57;;;;;;;4.15;3.03;;;39.10;95.90;;;;;;5051907;28;20543;-65
2022/06/18 09:16:31;;;;;;;3.08;2.78;;;39.30;95.80;;;;;;5052316;28;20206;-66
2022/06/18 09:18:59;;;;;;;4.32;3.33;;;39.20;95.00;;;;;;5052416;28;20223;-65
2022/06/18 09:21:43;;;;;;;7.68;3.40;;;38.90;95.10;;;;;;5052326;28;20265;-66
2022/06/18 09:24:14;;;;;;;5.72;3.30;;;39.00;96.20;;;;;;5051970;28;20194;-66
2022/06/18 09:26:43;;;;;;;10.75;3.65;;;39.00;95.50;;;;;;5052145;28;20228;-66
2022/06/18 09:29:22;;;;;;;6.47;3.10;;;39.00;95.50;;;;;;5052263;28;20171;-66
2022/06/18 09:31:55;;;;;;;4.30;3.30;;;39.10;94.10;;;;;;5051961;28;20187;-66
2022/06/18 09:35:06;;;;;;;3.85;3.05;;;39.20;93.10;;;;;;5048954;28;20293;-66
2022/06/18 09:37:38;;;;;;;4.53;3.47;;;39.10;94.10;;;;;;5051910;28;20203;-66
2022/06/18 09:40:10;;;;;;;5.00;3.10;;;38.90;94.90;;;;;;5051972;28;20178;-66
2022/06/18 09:42:42;;;;;;;6.25;3.28;;;38.90;92.80;;;;;;5051865;28;20167;-66
2022/06/18 09:45:31;;;;;;;4.03;2.90;;;38.70;91.80;;;;;;5051579;28;20197;-66
2022/06/18 09:47:56;;;;;;;3.58;3.05;;;38.70;92.00;;;;;;5051799;28;20167;-66
2022/06/18 09:50:35;;;;;;;4.43;2.90;;;39.10;90.90;;;;;;5051707;28;20178;-66
2022/06/18 09:53:13;;;;;;;5.32;2.90;;;39.40;92.30;;;;;;5051865;28;20173;-67
2022/06/18 09:55:45;;;;;;;5.68;3.10;;;39.90;91.80;;;;;;5051488;28;20199;-65
2022/06/18 09:58:35;;;;;;;7.30;3.33;;;40.50;89.60;;;;;;5050606;28;20261;-66
2022/06/18 10:01:01;;;;;;;7.22;3.47;;;40.10;90.20;;;;;;5049850;28;20189;-65
2022/06/18 10:09:06;;;;;;;5.10;3.40;;;40.10;88.10;;;;;;5053645;28;20210;-65
2022/06/18 10:11:32;;;;;;;6.13;2.85;;;40.30;90.80;;;;;;5051240;28;20197;-66
2022/06/18 10:14:01;;;;;;;7.50;3.58;;;40.50;85.60;;;;;;5049802;28;20278;-66
2022/06/18 10:16:38;;;;;;;7.72;3.22;;;40.50;90.40;;;;;;5051115;28;20207;-66
2022/06/18 10:19:45;;;;;;;6.57;3.13;;;40.70;88.10;;;;;;5051209;28;20178;-66
2022/06/18 10:22:11;;;;;;;5.03;3.00;;;40.70;88.90;;;;;;5051505;28;20198;-65
2022/06/18 10:24:59;;;;;;;5.63;3.28;;;40.40;89.60;;;;;;5050465;28;20249;-66
2022/06/18 10:27:40;;;;;;;6.15;3.40;;;40.50;88.90;;;;;;5050634;28;20177;-65
2022/06/18 10:30:13;;;;;;;7.57;3.40;;;40.90;88.20;;;;;;5031425;28;20535;-67
2022/06/18 10:32:51;;;;;;;7.45;3.25;;;41.40;87.40;;;;;;5031252;28;20612;-66
2022/06/18 10:35:31;;;;;;;5.88;3.28;;;41.50;84.30;;;;;;5083363;22;20308;-66
2022/06/18 10:38:02;;;;;;;7.90;3.70;;;41.40;84.70;;;;;;5067578;28;20239;-66
2022/06/18 10:41:03;;;;;;;3.50;3.10;;;41.10;86.40;;;;;;5069445;28;20525;-66
2022/06/18 10:43:51;;;;;;;9.60;3.97;;;40.60;83.90;;;;;;4995350;28;20277;-66
2022/06/18 10:46:20;;;;;;;3.95;3.33;;;40.60;84.20;;;;;;5050059;28;20206;-65
2022/06/18 10:48:50;;;;;;;3.50;2.95;;;40.30;85.50;;;;;;5051015;28;20185;-66
2022/06/18 10:51:19;;;;;;;5.80;3.72;;;40.20;85.20;;;;;;5050740;28;20225;-66
2022/06/18 10:53:56;;;;;;;7.35;4.10;;;39.80;84.40;;;;;;5050816;28;20185;-66
2022/06/18 10:56:28;;;;;;;4.70;3.50;;;39.40;82.20;;;;;;5050745;28;20233;-66
2022/06/18 10:58:55;;;;;;;5.82;3.58;;;39.00;82.90;;;;;;5050937;28;20183;-65
2022/06/18 11:01:31;;;;;;;10.32;3.65;;;38.60;83.40;;;;;;5052640;28;20218;-65
2022/06/18 11:03:59;;;;;;;6.50;3.80;;;38.30;82.80;;;;;;5054617;28;20185;-65
2022/06/18 11:06:25;;;;;;;3.63;3.33;;;38.00;82.30;;;;;;5054954;28;20179;-66
2022/06/18 11:08:55;;;;;;;4.53;3.42;;;37.70;84.70;;;;;;5054854;28;20236;-66
2022/06/18 11:11:25;;;;;;;5.20;3.42;;;37.70;85.30;;;;;;5053895;28;20183;-66
2022/06/18 11:13:51;;;;;;;6.68;3.53;;;38.10;84.80;;;;;;5053941;28;20254;-66
2022/06/18 11:16:28;;;;;;;4.75;3.38;;;38.40;85.90;;;;;;5054675;28;20336;-66
2022/06/18 11:19:13;;;;;;;4.65;3.40;;;38.40;83.50;;;;;;5054568;28;20182;-66
2022/06/18 11:21:43;;;;;;;5.65;3.53;;;38.10;81.30;;;;;;5054602;28;20156;-66
2022/06/18 11:24:11;;;;;;;7.63;3.75;;;38.40;84.30;;;;;;5054443;28;20508;-66
2022/06/18 11:26:55;;;;;;;9.25;3.70;;;38.30;81.50;;;;;;5054707;28;20645;-66
2022/06/18 11:29:42;;;;;;;5.35;3.60;;;38.30;83.80;;;;;;5054627;28;20563;-66
2022/06/18 11:32:12;;;;;;;7.53;3.70;;;38.30;81.50;;;;;;5054607;28;20175;-66
2022/06/18 11:34:44;;;;;;;14.32;3.78;;;38.40;82.20;;;;;;5054170;28;20206;-66
2022/06/18 11:37:22;;;;;;;11.32;3.47;;;38.10;83.00;;;;;;5052345;28;20179;-65
2022/06/18 11:40:03;;;;;;;4.25;3.17;;;38.10;83.50;;;;;;5034719;28;20207;-66
2022/06/18 11:42:56;;;;;;;5.75;4.07;;;38.30;82.50;;;;;;5042174;28;20183;-66
2022/06/18 11:45:47;;;;;;;6.95;3.65;;;38.30;85.60;;;;;;5054227;28;20650;-66
2022/06/18 11:48:30;;;;;;;4.82;3.55;;;38.30;84.30;;;;;;5054010;28;20179;-66
2022/06/18 11:51:30;;;;;;;6.70;3.60;;;38.40;88.00;;;;;;5049462;28;20176;-65
2022/06/18 11:54:16;;;;;;;5.25;3.17;;;39.00;81.70;;;;;;5032743;28;20275;-66
2022/06/18 11:56:44;;;;;;;7.18;3.72;;;38.90;81.20;;;;;;5046904;28;20601;-65
2022/06/18 11:59:34;;;;;;;4.78;3.45;;;38.30;81.20;;;;;;5054011;28;20658;-65
2022/06/18 12:02:11;;;;;;;4.43;3.10;;;37.90;80.90;;;;;;5041486;28;20179;-66
2022/06/18 12:04:45;;;;;;;10.63;3.22;;;38.10;81.80;;;;;;5033904;28;20198;-66
2022/06/18 12:07:32;;;;;;;5.38;3.50;;;38.40;84.30;;;;;;5034048;28;20201;-66
2022/06/18 12:09:58;;;;;;;5.07;3.17;;;39.00;83.50;;;;;;5033923;28;20708;-66
2022/06/18 12:12:45;;;;;;;7.15;3.67;;;38.90;79.10;;;;;;5033783;28;20171;-66
2022/06/18 12:15:23;;;;;;;6.95;3.50;;;38.70;83.80;;;;;;5042161;28;20674;-66
2022/06/18 12:18:01;;;;;;;4.63;3.40;;;38.90;83.40;;;;;;5053523;28;20225;-66
2022/06/18 12:20:49;;;;;;;9.27;3.85;;;38.80;80.20;;;;;;5053274;28;20183;-66
2022/06/18 12:23:25;;;;;;;5.40;3.40;;;38.90;80.30;;;;;;5053876;28;20171;-66
2022/06/18 12:25:53;;;;;;;6.25;3.65;;;39.20;84.80;;;;;;5053370;28;20672;-66
2022/06/18 12:28:36;;;;;;;8.73;3.80;;;39.60;80.20;;;;;;5053493;28;20167;-66
2022/06/18 12:31:08;;;;;;;6.97;3.40;;;39.80;82.60;;;;;;5052195;28;20175;-66
2022/06/18 12:33:44;;;;;;;6.18;3.60;;;39.30;79.80;;;;;;5053063;28;20181;-66
2022/06/18 12:36:12;;;;;;;6.80;4.53;;;39.30;80.10;;;;;;5053226;28;20718;-66
2022/06/18 12:39:12;;;;;;;6.80;3.65;;;39.00;78.10;;;;;;5053029;28;20637;-66
2022/06/18 12:42:00;;;;;;;3.80;3.22;;;38.60;78.30;;;;;;5038640;28;20244;-66
2022/06/18 12:44:36;;;;;;;4.20;3.28;;;38.50;78.60;;;;;;5052287;28;20294;-65
2022/06/18 12:47:13;;;;;;;6.50;3.67;;;38.50;78.50;;;;;;5053261;28;20268;-66
2022/06/18 12:49:54;;;;;;;7.28;3.45;;;38.30;79.60;;;;;;5053775;28;20575;-66
2022/06/18 12:52:37;;;;;;;7.82;3.55;;;38.40;77.90;;;;;;5052596;28;20167;-66
2022/06/18 12:55:13;;;;;;;3.85;3.45;;;38.50;86.50;;;;;;5053007;28;20198;-66
2022/06/18 12:58:02;;;;;;;10.40;4.05;;;38.80;79.60;;;;;;5052600;28;20213;-66
2022/06/18 13:00:35;;;;;;;7.07;4.05;;;39.00;81.30;;;;;;5052698;28;20179;-66
2022/06/18 13:03:04;;;;;;;12.15;3.90;;;39.20;81.30;;;;;;5052968;28;20672;-66
2022/06/18 13:05:49;;;;;;;5.57;3.70;;;39.30;81.30;;;;;;5051460;28;20677;-66
2022/06/18 13:08:15;;;;;;;7.30;3.90;;;39.40;78.90;;;;;;5052669;28;20201;-66
2022/06/18 13:10:51;;;;;;;9.05;3.90;;;39.50;82.00;;;;;;5052308;28;20633;-66
2022/06/18 13:13:31;;;;;;;4.03;3.53;;;39.60;79.10;;;;;;5052765;28;20170;-66
2022/06/18 13:16:10;;;;;;;7.53;3.80;;;39.50;76.70;;;;;;5052175;28;20202;-66
2022/06/18 13:19:13;;;;;;;9.73;3.50;;;39.70;76.60;;;;;;5052288;28;20178;-66